sensor_id;sensor_type;location;lat;lon;timestamp;temperature;humidity
9466;DHT22;4771;48.726;9.006;2023-02-12T00:01:23;5.70;99.90
9466;DHT22;4771;48.726;9.006;2023-02-12T00:03:51;5.70;99.90
9466;DHT22;4771;48.726;9.006;2023-02-12T00:06:18;5.70;99.90
9466;DHT22;4771;48.726;9.006;2023-02-12T00:08:48;5.70;99.90
9466;DHT22;4771;48.726;9.006;2023-02-12T00:11:16;5.60;99.90
9466;DHT22;4771;48.726;9.006;2023-02-12T00:13:44;5.70;99.90
9466;DHT22;4771;48.726;9.006;2023-02-12T00:16:13;5.70;99.90
9466;DHT22;4771;48.726;9.006;2023-02-12T00:18:40;5.70;99.90
9466;DHT22;4771;48.726;9.006;2023-02-12T00:21:08;5.70;99.90
9466;DHT22;4771;48.726;9.006;2023-02-12T00:23:36;5.70;99.90
9466;DHT22;4771;48.726;9.006;2023-02-12T00:26:05;5.70;99.90
9466;DHT22;4771;48.726;9.006;2023-02-12T00:28:32;5.70;99.90
9466;DHT22;4771;48.726;9.006;2023-02-12T00:31:03;5.70;99.90
9466;DHT22;4771;48.726;9.006;2023-02-12T00:33:30;5.70;99.90
9466;DHT22;4771;48.726;9.006;2023-02-12T00:35:57;5.70;99.90
9466;DHT22;4771;48.726;9.006;2023-02-12T00:38:26;5.70;99.90
9466;DHT22;4771;48.726;9.006;2023-02-12T00:40:52;5.80;99.90
9466;DHT22;4771;48.726;9.006;2023-02-12T00:43:19;5.80;99.90
9466;DHT22;4771;48.726;9.006;2023-02-12T00:45:46;5.70;99.90
9466;DHT22;4771;48.726;9.006;2023-02-12T00:48:14;5.80;99.90
9466;DHT22;4771;48.726;9.006;2023-02-12T00:50:43;5.80;99.90
9466;DHT22;4771;48.726;9.006;2023-02-12T00:53:10;5.80;99.90
9466;DHT22;4771;48.726;9.006;2023-02-12T00:55:39;5.80;99.90
9466;DHT22;4771;48.726;9.006;2023-02-12T00:58:06;5.90;99.90
9466;DHT22;4771;48.726;9.006;2023-02-12T01:00:33;5.70;99.90
9466;DHT22;4771;48.726;9.006;2023-02-12T01:03:00;5.70;99.90
9466;DHT22;4771;48.726;9.006;2023-02-12T01:05:28;5.70;99.90
9466;DHT22;4771;48.726;9.006;2023-02-12T01:07:55;5.70;99.90
9466;DHT22;4771;48.726;9.006;2023-02-12T01:10:22;5.70;99.90
9466;DHT22;4771;48.726;9.006;2023-02-12T01:12:50;5.70;99.90
9466;DHT22;4771;48.726;9.006;2023-02-12T01:15:18;5.70;99.90
9466;DHT22;4771;48.726;9.006;2023-02-12T01:17:45;5.70;99.90
9466;DHT22;4771;48.726;9.006;2023-02-12T01:20:13;5.70;99.90
9466;DHT22;4771;48.726;9.006;2023-02-12T01:22:42;5.70;99.90
9466;DHT22;4771;48.726;9.006;2023-02-12T01:25:09;5.70;99.90
9466;DHT22;4771;48.726;9.006;2023-02-12T01:27:37;5.70;99.90
9466;DHT22;4771;48.726;9.006;2023-02-12T01:30:09;5.70;99.90
9466;DHT22;4771;48.726;9.006;2023-02-12T01:32:37;5.60;99.90
9466;DHT22;4771;48.726;9.006;2023-02-12T01:35:04;5.70;99.90
9466;DHT22;4771;48.726;9.006;2023-02-12T01:37:34;5.70;99.90
9466;DHT22;4771;48.726;9.006;2023-02-12T01:40:01;5.70;99.90
9466;DHT22;4771;48.726;9.006;2023-02-12T01:42:28;5.70;99.90
9466;DHT22;4771;48.726;9.006;2023-02-12T01:48:00;5.70;99.90
9466;DHT22;4771;48.726;9.006;2023-02-12T01:50:27;5.70;99.90
9466;DHT22;4771;48.726;9.006;2023-02-12T01:52:56;5.70;99.90
9466;DHT22;4771;48.726;9.006;2023-02-12T01:55:24;5.60;99.90
9466;DHT22;4771;48.726;9.006;2023-02-12T01:57:51;5.70;99.90
9466;DHT22;4771;48.726;9.006;2023-02-12T02:00:20;5.70;99.90
9466;DHT22;4771;48.726;9.006;2023-02-12T02:02:50;5.70;99.90
9466;DHT22;4771;48.726;9.006;2023-02-12T02:05:25;5.60;99.90
9466;DHT22;4771;48.726;9.006;2023-02-12T02:07:54;5.60;99.90
9466;DHT22;4771;48.726;9.006;2023-02-12T02:10:21;5.60;99.90
9466;DHT22;4771;48.726;9.006;2023-02-12T02:12:47;5.60;99.90
9466;DHT22;4771;48.726;9.006;2023-02-12T02:15:32;5.60;99.90
9466;DHT22;4771;48.726;9.006;2023-02-12T02:18:03;5.60;99.90
9466;DHT22;4771;48.726;9.006;2023-02-12T02:20:53;5.60;99.90
9466;DHT22;4771;48.726;9.006;2023-02-12T02:23:38;5.60;99.90
9466;DHT22;4771;48.726;9.006;2023-02-12T02:26:27;5.60;99.90
9466;DHT22;4771;48.726;9.006;2023-02-12T02:29:12;5.60;99.90
9466;DHT22;4771;48.726;9.006;2023-02-12T02:31:46;5.70;99.90
9466;DHT22;4771;48.726;9.006;2023-02-12T02:34:19;5.60;99.90
9466;DHT22;4771;48.726;9.006;2023-02-12T02:36:51;5.60;99.90
9466;DHT22;4771;48.726;9.006;2023-02-12T02:39:26;5.50;99.90
9466;DHT22;4771;48.726;9.006;2023-02-12T02:41:56;5.50;99.90
9466;DHT22;4771;48.726;9.006;2023-02-12T02:44:28;5.50;99.90
9466;DHT22;4771;48.726;9.006;2023-02-12T02:46:59;5.50;99.90
9466;DHT22;4771;48.726;9.006;2023-02-12T02:49:32;4.60;99.90
9466;DHT22;4771;48.726;9.006;2023-02-12T02:52:05;5.50;99.90
9466;DHT22;4771;48.726;9.006;2023-02-12T02:54:36;5.50;99.90
9466;DHT22;4771;48.726;9.006;2023-02-12T02:57:07;5.50;99.90
9466;DHT22;4771;48.726;9.006;2023-02-12T02:59:40;5.50;99.90
9466;DHT22;4771;48.726;9.006;2023-02-12T03:02:14;5.60;99.90
9466;DHT22;4771;48.726;9.006;2023-02-12T03:04:45;5.60;99.90
9466;DHT22;4771;48.726;9.006;2023-02-12T03:07:16;5.60;99.90
9466;DHT22;4771;48.726;9.006;2023-02-12T03:09:49;5.50;99.90
9466;DHT22;4771;48.726;9.006;2023-02-12T03:12:21;5.50;99.90
9466;DHT22;4771;48.726;9.006;2023-02-12T03:14:53;5.60;99.90
9466;DHT22;4771;48.726;9.006;2023-02-12T03:17:27;5.60;99.90
9466;DHT22;4771;48.726;9.006;2023-02-12T03:19:59;5.50;99.90
9466;DHT22;4771;48.726;9.006;2023-02-12T03:22:31;5.60;99.90
9466;DHT22;4771;48.726;9.006;2023-02-12T03:25:03;5.50;99.90
9466;DHT22;4771;48.726;9.006;2023-02-12T03:27:37;5.50;99.90
9466;DHT22;4771;48.726;9.006;2023-02-12T03:30:06;5.60;99.90
9466;DHT22;4771;48.726;9.006;2023-02-12T03:32:40;5.50;99.90
9466;DHT22;4771;48.726;9.006;2023-02-12T03:35:13;5.50;99.90
9466;DHT22;4771;48.726;9.006;2023-02-12T03:37:50;5.50;99.90
9466;DHT22;4771;48.726;9.006;2023-02-12T03:40:25;5.40;99.90
9466;DHT22;4771;48.726;9.006;2023-02-12T03:42:58;5.40;99.90
9466;DHT22;4771;48.726;9.006;2023-02-12T03:45:35;5.50;99.90
9466;DHT22;4771;48.726;9.006;2023-02-12T03:48:10;5.50;99.90
9466;DHT22;4771;48.726;9.006;2023-02-12T03:50:44;5.50;99.90
9466;DHT22;4771;48.726;9.006;2023-02-12T03:53:12;5.50;99.90
9466;DHT22;4771;48.726;9.006;2023-02-12T03:55:41;5.50;99.90
9466;DHT22;4771;48.726;9.006;2023-02-12T03:58:11;5.50;99.90
9466;DHT22;4771;48.726;9.006;2023-02-12T04:00:40;5.50;99.90
9466;DHT22;4771;48.726;9.006;2023-02-12T04:03:08;5.50;99.90
9466;DHT22;4771;48.726;9.006;2023-02-12T04:05:35;5.50;99.90
9466;DHT22;4771;48.726;9.006;2023-02-12T04:08:05;5.50;99.90
9466;DHT22;4771;48.726;9.006;2023-02-12T04:10:40;5.50;99.90
9466;DHT22;4771;48.726;9.006;2023-02-12T04:13:22;6.50;99.90
9466;DHT22;4771;48.726;9.006;2023-02-12T04:16:01;5.40;99.90
9466;DHT22;4771;48.726;9.006;2023-02-12T04:18:36;5.50;99.90
9466;DHT22;4771;48.726;9.006;2023-02-12T04:21:12;5.40;99.90
9466;DHT22;4771;48.726;9.006;2023-02-12T04:23:49;5.40;99.90
9466;DHT22;4771;48.726;9.006;2023-02-12T04:26:25;5.40;99.90
9466;DHT22;4771;48.726;9.006;2023-02-12T04:29:07;5.30;99.90
9466;DHT22;4771;48.726;9.006;2023-02-12T04:31:40;5.40;99.90
9466;DHT22;4771;48.726;9.006;2023-02-12T04:34:16;5.40;99.90
9466;DHT22;4771;48.726;9.006;2023-02-12T04:36:46;5.40;99.90
9466;DHT22;4771;48.726;9.006;2023-02-12T04:39:18;5.50;99.90
9466;DHT22;4771;48.726;9.006;2023-02-12T04:41:45;5.50;99.90
9466;DHT22;4771;48.726;9.006;2023-02-12T04:44:15;5.50;99.90
9466;DHT22;4771;48.726;9.006;2023-02-12T04:46:41;5.50;99.90
9466;DHT22;4771;48.726;9.006;2023-02-12T04:49:14;5.50;99.90
9466;DHT22;4771;48.726;9.006;2023-02-12T04:51:42;5.50;99.90
9466;DHT22;4771;48.726;9.006;2023-02-12T04:54:09;5.50;99.90
9466;DHT22;4771;48.726;9.006;2023-02-12T04:56:35;5.50;99.90
9466;DHT22;4771;48.726;9.006;2023-02-12T04:59:02;5.50;99.90
9466;DHT22;4771;48.726;9.006;2023-02-12T05:01:30;5.50;99.90
9466;DHT22;4771;48.726;9.006;2023-02-12T05:03:56;5.50;99.90
9466;DHT22;4771;48.726;9.006;2023-02-12T05:06:25;5.50;99.90
9466;DHT22;4771;48.726;9.006;2023-02-12T05:08:51;5.50;99.90
9466;DHT22;4771;48.726;9.006;2023-02-12T05:11:19;5.50;99.90
9466;DHT22;4771;48.726;9.006;2023-02-12T05:13:47;5.50;99.90
9466;DHT22;4771;48.726;9.006;2023-02-12T05:16:15;5.50;99.90
9466;DHT22;4771;48.726;9.006;2023-02-12T05:18:42;5.60;99.90
9466;DHT22;4771;48.726;9.006;2023-02-12T05:21:09;5.50;99.90
9466;DHT22;4771;48.726;9.006;2023-02-12T05:23:38;5.50;99.90
9466;DHT22;4771;48.726;9.006;2023-02-12T05:26:09;5.50;99.90
9466;DHT22;4771;48.726;9.006;2023-02-12T05:28:36;5.50;99.90
9466;DHT22;4771;48.726;9.006;2023-02-12T05:31:05;5.50;99.90
9466;DHT22;4771;48.726;9.006;2023-02-12T05:33:33;5.50;99.90
9466;DHT22;4771;48.726;9.006;2023-02-12T05:36:03;5.50;99.90
9466;DHT22;4771;48.726;9.006;2023-02-12T05:38:30;5.50;99.90
9466;DHT22;4771;48.726;9.006;2023-02-12T05:41:02;5.60;99.90
9466;DHT22;4771;48.726;9.006;2023-02-12T05:43:29;5.50;99.90
9466;DHT22;4771;48.726;9.006;2023-02-12T05:45:58;5.80;99.90
9466;DHT22;4771;48.726;9.006;2023-02-12T05:48:25;5.50;99.90
9466;DHT22;4771;48.726;9.006;2023-02-12T05:50:52;5.50;99.90
9466;DHT22;4771;48.726;9.006;2023-02-12T05:53:18;5.60;99.90
9466;DHT22;4771;48.726;9.006;2023-02-12T05:55:45;5.50;99.90
9466;DHT22;4771;48.726;9.006;2023-02-12T05:58:14;5.40;99.90
9466;DHT22;4771;48.726;9.006;2023-02-12T06:00:40;5.50;99.90
9466;DHT22;4771;48.726;9.006;2023-02-12T06:03:07;5.50;99.90
9466;DHT22;4771;48.726;9.006;2023-02-12T06:05:34;5.60;99.90
9466;DHT22;4771;48.726;9.006;2023-02-12T06:08:01;5.50;99.90
9466;DHT22;4771;48.726;9.006;2023-02-12T06:10:28;5.50;99.90
9466;DHT22;4771;48.726;9.006;2023-02-12T06:12:54;5.60;99.90
9466;DHT22;4771;48.726;9.006;2023-02-12T06:15:23;5.50;99.90
9466;DHT22;4771;48.726;9.006;2023-02-12T06:17:49;5.50;99.90
9466;DHT22;4771;48.726;9.006;2023-02-12T06:20:16;5.50;99.90
9466;DHT22;4771;48.726;9.006;2023-02-12T06:22:43;5.40;99.90
9466;DHT22;4771;48.726;9.006;2023-02-12T06:25:10;5.40;99.90
9466;DHT22;4771;48.726;9.006;2023-02-12T06:27:37;5.40;99.90
9466;DHT22;4771;48.726;9.006;2023-02-12T06:30:05;5.30;99.90
9466;DHT22;4771;48.726;9.006;2023-02-12T06:32:33;5.20;99.90
9466;DHT22;4771;48.726;9.006;2023-02-12T06:35:00;5.30;99.90
9466;DHT22;4771;48.726;9.006;2023-02-12T06:37:27;5.20;99.90
9466;DHT22;4771;48.726;9.006;2023-02-12T06:39:53;5.20;99.90
9466;DHT22;4771;48.726;9.006;2023-02-12T06:42:20;5.30;99.90
9466;DHT22;4771;48.726;9.006;2023-02-12T06:44:47;5.30;99.90
9466;DHT22;4771;48.726;9.006;2023-02-12T06:47:14;5.40;99.90
9466;DHT22;4771;48.726;9.006;2023-02-12T06:49:42;5.40;99.90
9466;DHT22;4771;48.726;9.006;2023-02-12T06:52:09;5.40;99.90
9466;DHT22;4771;48.726;9.006;2023-02-12T06:54:36;5.40;99.90
9466;DHT22;4771;48.726;9.006;2023-02-12T06:57:03;5.40;99.90
9466;DHT22;4771;48.726;9.006;2023-02-12T06:59:30;5.40;99.90
9466;DHT22;4771;48.726;9.006;2023-02-12T07:01:57;5.40;99.90
9466;DHT22;4771;48.726;9.006;2023-02-12T07:04:24;5.40;99.90
9466;DHT22;4771;48.726;9.006;2023-02-12T07:06:52;5.40;99.90
9466;DHT22;4771;48.726;9.006;2023-02-12T07:09:19;5.40;99.90
9466;DHT22;4771;48.726;9.006;2023-02-12T07:11:46;5.40;99.90
9466;DHT22;4771;48.726;9.006;2023-02-12T07:14:14;5.40;99.90
9466;DHT22;4771;48.726;9.006;2023-02-12T07:16:41;5.40;99.90
9466;DHT22;4771;48.726;9.006;2023-02-12T07:19:09;5.40;99.90
9466;DHT22;4771;48.726;9.006;2023-02-12T07:21:37;5.30;99.90
9466;DHT22;4771;48.726;9.006;2023-02-12T07:24:06;5.30;99.90
9466;DHT22;4771;48.726;9.006;2023-02-12T07:26:36;5.30;99.90
9466;DHT22;4771;48.726;9.006;2023-02-12T07:29:03;5.30;99.90
9466;DHT22;4771;48.726;9.006;2023-02-12T07:31:30;5.40;99.90
9466;DHT22;4771;48.726;9.006;2023-02-12T07:33:58;5.40;99.90
9466;DHT22;4771;48.726;9.006;2023-02-12T07:36:27;5.30;99.90
9466;DHT22;4771;48.726;9.006;2023-02-12T07:38:55;5.30;99.90
9466;DHT22;4771;48.726;9.006;2023-02-12T07:41:25;5.30;99.90
9466;DHT22;4771;48.726;9.006;2023-02-12T07:43:53;5.30;99.90
9466;DHT22;4771;48.726;9.006;2023-02-12T07:46:22;5.30;99.90
9466;DHT22;4771;48.726;9.006;2023-02-12T07:48:51;5.30;99.90
9466;DHT22;4771;48.726;9.006;2023-02-12T07:51:18;5.40;99.90
9466;DHT22;4771;48.726;9.006;2023-02-12T07:53:45;5.40;99.90
9466;DHT22;4771;48.726;9.006;2023-02-12T07:56:14;5.40;99.90
9466;DHT22;4771;48.726;9.006;2023-02-12T07:58:44;5.40;99.90
9466;DHT22;4771;48.726;9.006;2023-02-12T08:01:13;5.50;99.90
9466;DHT22;4771;48.726;9.006;2023-02-12T08:03:40;5.50;99.90
9466;DHT22;4771;48.726;9.006;2023-02-12T08:06:09;5.60;99.90
9466;DHT22;4771;48.726;9.006;2023-02-12T08:08:36;5.50;99.90
9466;DHT22;4771;48.726;9.006;2023-02-12T08:11:04;5.60;99.90
9466;DHT22;4771;48.726;9.006;2023-02-12T08:13:32;5.40;99.90
9466;DHT22;4771;48.726;9.006;2023-02-12T08:16:01;5.50;99.90
9466;DHT22;4771;48.726;9.006;2023-02-12T08:18:29;5.60;99.90
9466;DHT22;4771;48.726;9.006;2023-02-12T08:21:01;5.60;99.90
9466;DHT22;4771;48.726;9.006;2023-02-12T08:23:28;5.70;99.90
9466;DHT22;4771;48.726;9.006;2023-02-12T08:26:04;5.70;99.90
9466;DHT22;4771;48.726;9.006;2023-02-12T08:28:31;5.80;99.90
9466;DHT22;4771;48.726;9.006;2023-02-12T08:31:01;5.80;99.90
9466;DHT22;4771;48.726;9.006;2023-02-12T08:33:28;5.90;99.90
9466;DHT22;4771;48.726;9.006;2023-02-12T08:36:03;6.00;99.90
9466;DHT22;4771;48.726;9.006;2023-02-12T08:38:31;6.10;99.90
9466;DHT22;4771;48.726;9.006;2023-02-12T08:41:02;6.10;99.90
9466;DHT22;4771;48.726;9.006;2023-02-12T08:43:29;6.10;99.90
9466;DHT22;4771;48.726;9.006;2023-02-12T08:46:02;6.10;99.90
9466;DHT22;4771;48.726;9.006;2023-02-12T08:48:29;6.20;99.90
9466;DHT22;4771;48.726;9.006;2023-02-12T08:51:01;6.20;99.90
9466;DHT22;4771;48.726;9.006;2023-02-12T08:53:28;7.00;99.90
9466;DHT22;4771;48.726;9.006;2023-02-12T08:55:55;6.30;99.90
9466;DHT22;4771;48.726;9.006;2023-02-12T08:58:22;6.30;99.90
9466;DHT22;4771;48.726;9.006;2023-02-12T09:00:49;6.20;99.90
9466;DHT22;4771;48.726;9.006;2023-02-12T09:03:17;6.20;99.90
9466;DHT22;4771;48.726;9.006;2023-02-12T09:05:44;6.20;99.90
9466;DHT22;4771;48.726;9.006;2023-02-12T09:08:10;6.30;99.90
9466;DHT22;4771;48.726;9.006;2023-02-12T09:10:38;6.30;99.90
9466;DHT22;4771;48.726;9.006;2023-02-12T09:13:05;6.40;99.90
9466;DHT22;4771;48.726;9.006;2023-02-12T09:15:36;6.40;99.90
9466;DHT22;4771;48.726;9.006;2023-02-12T09:18:03;6.50;99.90
9466;DHT22;4771;48.726;9.006;2023-02-12T09:20:32;6.40;99.90
9466;DHT22;4771;48.726;9.006;2023-02-12T09:22:59;5.50;99.90
9466;DHT22;4771;48.726;9.006;2023-02-12T09:25:26;6.60;99.90
9466;DHT22;4771;48.726;9.006;2023-02-12T09:27:54;6.50;99.90
9466;DHT22;4771;48.726;9.006;2023-02-12T09:30:21;6.50;99.90
9466;DHT22;4771;48.726;9.006;2023-02-12T09:32:47;6.50;99.90
9466;DHT22;4771;48.726;9.006;2023-02-12T09:35:14;6.50;99.90
9466;DHT22;4771;48.726;9.006;2023-02-12T09:37:44;6.50;99.90
9466;DHT22;4771;48.726;9.006;2023-02-12T09:40:18;6.60;99.90
9466;DHT22;4771;48.726;9.006;2023-02-12T09:43:05;6.50;99.90
9466;DHT22;4771;48.726;9.006;2023-02-12T09:45:37;6.50;99.90
9466;DHT22;4771;48.726;9.006;2023-02-12T09:48:26;6.60;99.90
9466;DHT22;4771;48.726;9.006;2023-02-12T09:50:57;6.50;99.90
9466;DHT22;4771;48.726;9.006;2023-02-12T09:53:29;6.50;99.90
9466;DHT22;4771;48.726;9.006;2023-02-12T09:55:57;6.50;99.90
9466;DHT22;4771;48.726;9.006;2023-02-12T09:58:30;6.50;99.90
9466;DHT22;4771;48.726;9.006;2023-02-12T10:00:59;7.00;99.90
9466;DHT22;4771;48.726;9.006;2023-02-12T10:03:29;6.50;99.90
9466;DHT22;4771;48.726;9.006;2023-02-12T10:06:00;6.50;99.90
9466;DHT22;4771;48.726;9.006;2023-02-12T10:08:57;6.50;99.90
9466;DHT22;4771;48.726;9.006;2023-02-12T10:11:36;6.50;99.90
9466;DHT22;4771;48.726;9.006;2023-02-12T10:14:25;6.50;99.90
9466;DHT22;4771;48.726;9.006;2023-02-12T10:17:01;6.60;99.90
9466;DHT22;4771;48.726;9.006;2023-02-12T10:19:48;6.70;99.90
9466;DHT22;4771;48.726;9.006;2023-02-12T10:22:24;6.80;99.90
9466;DHT22;4771;48.726;9.006;2023-02-12T10:25:08;7.40;99.90
9466;DHT22;4771;48.726;9.006;2023-02-12T10:27:39;6.90;99.90
9466;DHT22;4771;48.726;9.006;2023-02-12T10:30:16;6.90;99.90
9466;DHT22;4771;48.726;9.006;2023-02-12T10:32:45;6.90;99.90
9466;DHT22;4771;48.726;9.006;2023-02-12T10:35:15;7.00;99.90
9466;DHT22;4771;48.726;9.006;2023-02-12T10:37:44;7.10;99.90
9466;DHT22;4771;48.726;9.006;2023-02-12T10:40:20;7.20;99.90
9466;DHT22;4771;48.726;9.006;2023-02-12T10:42:50;7.20;99.90
9466;DHT22;4771;48.726;9.006;2023-02-12T10:45:19;7.20;99.90
9466;DHT22;4771;48.726;9.006;2023-02-12T10:47:50;7.20;99.90
9466;DHT22;4771;48.726;9.006;2023-02-12T10:50:23;7.10;99.90
9466;DHT22;4771;48.726;9.006;2023-02-12T10:52:55;7.10;99.90
9466;DHT22;4771;48.726;9.006;2023-02-12T10:55:26;7.10;99.90
9466;DHT22;4771;48.726;9.006;2023-02-12T10:57:54;7.20;99.90
9466;DHT22;4771;48.726;9.006;2023-02-12T11:00:28;7.30;99.90
9466;DHT22;4771;48.726;9.006;2023-02-12T11:03:04;7.30;99.90
9466;DHT22;4771;48.726;9.006;2023-02-12T11:05:33;7.40;99.90
9466;DHT22;4771;48.726;9.006;2023-02-12T11:08:00;7.40;99.90
9466;DHT22;4771;48.726;9.006;2023-02-12T11:10:31;7.40;99.90
9466;DHT22;4771;48.726;9.006;2023-02-12T11:12:58;7.40;99.90
9466;DHT22;4771;48.726;9.006;2023-02-12T11:15:26;7.40;99.90
9466;DHT22;4771;48.726;9.006;2023-02-12T11:17:57;7.40;99.90
9466;DHT22;4771;48.726;9.006;2023-02-12T11:20:27;7.40;99.90
9466;DHT22;4771;48.726;9.006;2023-02-12T11:22:56;7.50;99.90
9466;DHT22;4771;48.726;9.006;2023-02-12T11:25:24;7.40;99.90
9466;DHT22;4771;48.726;9.006;2023-02-12T11:28:02;7.40;99.90
9466;DHT22;4771;48.726;9.006;2023-02-12T11:30:30;7.40;99.90
9466;DHT22;4771;48.726;9.006;2023-02-12T11:33:15;7.40;99.90
9466;DHT22;4771;48.726;9.006;2023-02-12T11:35:49;7.50;99.90
9466;DHT22;4771;48.726;9.006;2023-02-12T11:38:22;7.40;99.90
9466;DHT22;4771;48.726;9.006;2023-02-12T11:40:54;7.40;99.90
9466;DHT22;4771;48.726;9.006;2023-02-12T11:43:23;7.40;99.90
9466;DHT22;4771;48.726;9.006;2023-02-12T11:45:53;7.50;99.90
9466;DHT22;4771;48.726;9.006;2023-02-12T11:48:24;7.50;99.90
9466;DHT22;4771;48.726;9.006;2023-02-12T11:50:54;7.60;99.90
9466;DHT22;4771;48.726;9.006;2023-02-12T11:53:24;7.70;99.90
9466;DHT22;4771;48.726;9.006;2023-02-12T11:55:55;7.80;99.90
9466;DHT22;4771;48.726;9.006;2023-02-12T11:58:25;7.80;99.90
9466;DHT22;4771;48.726;9.006;2023-02-12T12:01:03;7.80;99.90
9466;DHT22;4771;48.726;9.006;2023-02-12T12:03:35;7.90;99.90
9466;DHT22;4771;48.726;9.006;2023-02-12T12:06:08;8.00;99.90
9466;DHT22;4771;48.726;9.006;2023-02-12T12:08:42;8.00;99.90
9466;DHT22;4771;48.726;9.006;2023-02-12T12:11:13;7.90;99.90
9466;DHT22;4771;48.726;9.006;2023-02-12T12:13:47;7.90;99.90
9466;DHT22;4771;48.726;9.006;2023-02-12T12:16:19;7.90;99.90
9466;DHT22;4771;48.726;9.006;2023-02-12T12:19:10;7.90;99.90
9466;DHT22;4771;48.726;9.006;2023-02-12T12:22:02;7.90;99.90
9466;DHT22;4771;48.726;9.006;2023-02-12T12:24:37;7.90;99.90
9466;DHT22;4771;48.726;9.006;2023-02-12T12:27:22;8.00;99.90
9466;DHT22;4771;48.726;9.006;2023-02-12T12:30:19;8.00;99.90
9466;DHT22;4771;48.726;9.006;2023-02-12T12:32:49;8.10;99.90
9466;DHT22;4771;48.726;9.006;2023-02-12T12:35:22;8.20;99.90
9466;DHT22;4771;48.726;9.006;2023-02-12T12:37:54;8.20;99.90
9466;DHT22;4771;48.726;9.006;2023-02-12T12:40:35;8.20;99.90
9466;DHT22;4771;48.726;9.006;2023-02-12T12:43:10;8.20;99.90
9466;DHT22;4771;48.726;9.006;2023-02-12T12:46:02;8.20;99.90
9466;DHT22;4771;48.726;9.006;2023-02-12T12:51:39;8.20;99.90
9466;DHT22;4771;48.726;9.006;2023-02-12T12:54:21;8.50;99.90
9466;DHT22;4771;48.726;9.006;2023-02-12T12:57:00;8.40;99.90
9466;DHT22;4771;48.726;9.006;2023-02-12T12:59:50;8.50;99.90
9466;DHT22;4771;48.726;9.006;2023-02-12T13:05:44;8.60;99.90
9466;DHT22;4771;48.726;9.006;2023-02-12T13:08:24;8.70;99.90
9466;DHT22;4771;48.726;9.006;2023-02-12T13:10:56;8.80;99.90
9466;DHT22;4771;48.726;9.006;2023-02-12T13:13:31;8.80;99.90
9466;DHT22;4771;48.726;9.006;2023-02-12T13:16:05;8.80;99.90
9466;DHT22;4771;48.726;9.006;2023-02-12T13:18:44;8.70;99.90
9466;DHT22;4771;48.726;9.006;2023-02-12T13:21:18;8.80;99.90
9466;DHT22;4771;48.726;9.006;2023-02-12T13:23:51;8.80;99.90
9466;DHT22;4771;48.726;9.006;2023-02-12T13:26:25;8.80;99.90
9466;DHT22;4771;48.726;9.006;2023-02-12T13:28:59;8.90;99.90
9466;DHT22;4771;48.726;9.006;2023-02-12T13:31:29;8.80;99.90
9466;DHT22;4771;48.726;9.006;2023-02-12T13:33:58;8.90;99.90
9466;DHT22;4771;48.726;9.006;2023-02-12T13:36:27;8.80;99.90
9466;DHT22;4771;48.726;9.006;2023-02-12T13:38:58;8.70;99.90
9466;DHT22;4771;48.726;9.006;2023-02-12T13:41:31;8.80;99.90
9466;DHT22;4771;48.726;9.006;2023-02-12T13:44:06;8.80;99.90
9466;DHT22;4771;48.726;9.006;2023-02-12T13:46:48;8.80;99.90
9466;DHT22;4771;48.726;9.006;2023-02-12T13:49:23;8.90;99.90
9466;DHT22;4771;48.726;9.006;2023-02-12T13:51:58;8.90;99.90
9466;DHT22;4771;48.726;9.006;2023-02-12T13:54:40;9.00;99.90
9466;DHT22;4771;48.726;9.006;2023-02-12T13:57:13;9.00;99.90
9466;DHT22;4771;48.726;9.006;2023-02-12T13:59:43;9.00;99.90
9466;DHT22;4771;48.726;9.006;2023-02-12T14:05:28;9.00;99.90
9466;DHT22;4771;48.726;9.006;2023-02-12T14:07:58;9.00;99.90
9466;DHT22;4771;48.726;9.006;2023-02-12T14:10:29;9.00;99.90
9466;DHT22;4771;48.726;9.006;2023-02-12T14:13:08;9.00;99.90
9466;DHT22;4771;48.726;9.006;2023-02-12T14:15:38;9.10;99.90
9466;DHT22;4771;48.726;9.006;2023-02-12T14:18:21;9.00;99.90
9466;DHT22;4771;48.726;9.006;2023-02-12T14:27:40;9.20;99.90
9466;DHT22;4771;48.726;9.006;2023-02-12T14:30:27;9.30;99.90
9466;DHT22;4771;48.726;9.006;2023-02-12T14:33:09;9.30;99.90
9466;DHT22;4771;48.726;9.006;2023-02-12T14:35:37;9.30;99.90
9466;DHT22;4771;48.726;9.006;2023-02-12T14:41:23;9.20;99.90
9466;DHT22;4771;48.726;9.006;2023-02-12T14:44:45;9.10;99.90
9466;DHT22;4771;48.726;9.006;2023-02-12T14:50:16;9.00;99.90
9466;DHT22;4771;48.726;9.006;2023-02-12T14:52:50;9.00;99.90
9466;DHT22;4771;48.726;9.006;2023-02-12T14:55:24;8.90;99.90
9466;DHT22;4771;48.726;9.006;2023-02-12T14:57:57;8.90;99.90
9466;DHT22;4771;48.726;9.006;2023-02-12T15:00:28;8.90;99.90
9466;DHT22;4771;48.726;9.006;2023-02-12T15:03:00;8.90;99.90
9466;DHT22;4771;48.726;9.006;2023-02-12T15:05:35;8.80;99.90
9466;DHT22;4771;48.726;9.006;2023-02-12T15:08:07;8.70;99.90
9466;DHT22;4771;48.726;9.006;2023-02-12T15:10:37;8.80;99.90
9466;DHT22;4771;48.726;9.006;2023-02-12T15:13:14;8.70;99.90
9466;DHT22;4771;48.726;9.006;2023-02-12T15:15:49;8.70;99.90
9466;DHT22;4771;48.726;9.006;2023-02-12T15:18:21;8.70;99.90
9466;DHT22;4771;48.726;9.006;2023-02-12T15:20:56;8.70;99.90
9466;DHT22;4771;48.726;9.006;2023-02-12T15:23:37;8.70;99.90
9466;DHT22;4771;48.726;9.006;2023-02-12T15:26:09;8.60;99.90
9466;DHT22;4771;48.726;9.006;2023-02-12T15:28:38;8.60;99.90
9466;DHT22;4771;48.726;9.006;2023-02-12T15:31:08;8.60;99.90
9466;DHT22;4771;48.726;9.006;2023-02-12T15:33:39;8.50;99.90
9466;DHT22;4771;48.726;9.006;2023-02-12T15:36:08;8.50;99.90
9466;DHT22;4771;48.726;9.006;2023-02-12T15:38:37;8.50;99.90
9466;DHT22;4771;48.726;9.006;2023-02-12T15:41:07;8.40;99.90
9466;DHT22;4771;48.726;9.006;2023-02-12T15:43:39;8.40;99.90
9466;DHT22;4771;48.726;9.006;2023-02-12T15:46:15;8.40;99.90
9466;DHT22;4771;48.726;9.006;2023-02-12T15:48:42;8.40;99.90
9466;DHT22;4771;48.726;9.006;2023-02-12T15:51:15;8.40;99.90
9466;DHT22;4771;48.726;9.006;2023-02-12T15:53:43;8.30;99.90
9466;DHT22;4771;48.726;9.006;2023-02-12T15:56:12;8.30;99.90
9466;DHT22;4771;48.726;9.006;2023-02-12T15:58:45;8.30;99.90
9466;DHT22;4771;48.726;9.006;2023-02-12T16:01:15;8.30;99.90
9466;DHT22;4771;48.726;9.006;2023-02-12T16:03:43;8.30;99.90
9466;DHT22;4771;48.726;9.006;2023-02-12T16:06:15;8.20;99.90
9466;DHT22;4771;48.726;9.006;2023-02-12T16:08:44;8.20;99.90
9466;DHT22;4771;48.726;9.006;2023-02-12T16:11:12;8.20;99.90
9466;DHT22;4771;48.726;9.006;2023-02-12T16:13:42;8.10;99.90
9466;DHT22;4771;48.726;9.006;2023-02-12T16:16:23;8.00;99.90
9466;DHT22;4771;48.726;9.006;2023-02-12T16:19:04;8.10;99.90
9466;DHT22;4771;48.726;9.006;2023-02-12T16:21:33;8.00;99.90
9466;DHT22;4771;48.726;9.006;2023-02-12T16:24:01;8.00;99.90
9466;DHT22;4771;48.726;9.006;2023-02-12T16:26:28;7.90;99.90
9466;DHT22;4771;48.726;9.006;2023-02-12T16:28:56;7.90;99.90
9466;DHT22;4771;48.726;9.006;2023-02-12T16:31:26;7.80;99.90
9466;DHT22;4771;48.726;9.006;2023-02-12T16:33:54;7.70;99.90
9466;DHT22;4771;48.726;9.006;2023-02-12T16:36:31;7.60;99.90
9466;DHT22;4771;48.726;9.006;2023-02-12T16:39:00;7.70;99.90
9466;DHT22;4771;48.726;9.006;2023-02-12T16:41:28;7.60;99.90
9466;DHT22;4771;48.726;9.006;2023-02-12T16:44:26;7.60;99.90
9466;DHT22;4771;48.726;9.006;2023-02-12T16:46:59;7.60;99.90
9466;DHT22;4771;48.726;9.006;2023-02-12T16:49:26;7.60;99.90
9466;DHT22;4771;48.726;9.006;2023-02-12T16:52:18;7.50;99.90
9466;DHT22;4771;48.726;9.006;2023-02-12T16:54:47;7.40;99.90
9466;DHT22;4771;48.726;9.006;2023-02-12T16:57:14;7.40;99.90
9466;DHT22;4771;48.726;9.006;2023-02-12T16:59:41;7.40;99.90
9466;DHT22;4771;48.726;9.006;2023-02-12T17:02:12;7.30;99.90
9466;DHT22;4771;48.726;9.006;2023-02-12T17:04:40;7.20;99.90
9466;DHT22;4771;48.726;9.006;2023-02-12T17:07:17;7.20;99.90
9466;DHT22;4771;48.726;9.006;2023-02-12T17:09:44;7.10;99.90